Portada
METAR-TAF:

METAR-TAF

Aeroports :

Imphal, Índia

latitud: 24-45-36N, longitud: 93-53-48E, altitud: 774 m

Observació

L'informe es va fer fa 4 hores i 1 minuts, a les 12:00 UTC
Vent 7 kt del Oest
Temperatura 23°C
Humitat 53%
Pressió 1012 hPa
Visibilitat: 5000 m
Escasses núvols a una alçada de 800 ft
Núvols disperses a una alçada de 1800 ft
Escasses núvols a una alçada de 3000 ft, Cumulonimbus.
Cel ennuvolat a una alçada de 9000 ft
calitja

METAR: VEIM 201200Z 27007KT 5000 HZ FEW008 SCT018 FEW030CB BKN090 23/13 Q1012 NOSIG

Hora: 21:31 (16:01 UTC)

Pronòstic

L'informe es va fer fa 5 hores i 1 minuts, a les 11:00 UTC
Pronòstic vàlid del 20 a les 12 UTC al 20 a les 21 UTC
Vent 8 kt del Sud/Sud-Est
Visibilitat: 3000 m
Núvols disperses a una alçada de 1800 ft
Núvols disperses a una alçada de 10000 ft
calitja

TAF: VEIM 201100Z 2012/2021 16008KT 3000 HZ SCT018 SCT100

Observacions i pronòstics meteorològics de més de 4000 aeroports (METAR i TAF).

Les estacions disponibles són els punts grocs i vermells al mapa.

Posi el ratolí al punt desitjat per veure el nom de l'estació.

Feu clic per veure les observacions i els pronòstics meteorològics.

Per canviar el mapa: feu clic els botons verds amb una creu de color negre per apropar; al botó verd amb un guió per allunyar la imatge; o en les fletxes verdes per a mapes adjacents.


METAR-TAF: